sensor_id;sensor_type;location;lat;lon;timestamp;pressure;altitude;pressure_sealevel;temperature;humidity
55916;BME280;41826;53.246;-6.670;2022-12-28T00:02:06;100322.81;;;5.68;100.00
55916;BME280;41826;53.246;-6.670;2022-12-28T00:04:31;100309.78;;;5.57;100.00
55916;BME280;41826;53.246;-6.670;2022-12-28T00:06:57;100314.63;;;5.61;100.00
55916;BME280;41826;53.246;-6.670;2022-12-28T00:09:23;100318.66;;;5.65;100.00
55916;BME280;41826;53.246;-6.670;2022-12-28T00:11:49;100298.09;;;5.62;100.00
55916;BME280;41826;53.246;-6.670;2022-12-28T00:14:14;100306.00;;;5.61;100.00
55916;BME280;41826;53.246;-6.670;2022-12-28T00:16:40;100307.06;;;5.58;100.00
55916;BME280;41826;53.246;-6.670;2022-12-28T00:19:10;100305.78;;;5.53;100.00
55916;BME280;41826;53.246;-6.670;2022-12-28T00:21:36;100301.72;;;5.71;100.00
55916;BME280;41826;53.246;-6.670;2022-12-28T00:24:02;100312.03;;;5.73;100.00
55916;BME280;41826;53.246;-6.670;2022-12-28T00:26:30;100307.66;;;5.73;100.00
55916;BME280;41826;53.246;-6.670;2022-12-28T00:28:56;100310.13;;;5.75;100.00
55916;BME280;41826;53.246;-6.670;2022-12-28T00:31:21;100314.84;;;5.70;100.00
55916;BME280;41826;53.246;-6.670;2022-12-28T00:33:46;100317.53;;;5.47;100.00
55916;BME280;41826;53.246;-6.670;2022-12-28T00:36:13;100303.66;;;5.47;100.00
55916;BME280;41826;53.246;-6.670;2022-12-28T00:38:39;100300.56;;;5.41;100.00
55916;BME280;41826;53.246;-6.670;2022-12-28T00:41:05;100289.81;;;5.57;100.00
55916;BME280;41826;53.246;-6.670;2022-12-28T00:43:31;100285.31;;;5.48;100.00
55916;BME280;41826;53.246;-6.670;2022-12-28T00:45:57;100279.19;;;5.38;100.00
55916;BME280;41826;53.246;-6.670;2022-12-28T00:48:22;100280.22;;;5.58;100.00
55916;BME280;41826;53.246;-6.670;2022-12-28T00:50:48;100272.66;;;5.43;100.00
55916;BME280;41826;53.246;-6.670;2022-12-28T00:53:13;100270.56;;;5.37;100.00
55916;BME280;41826;53.246;-6.670;2022-12-28T00:55:39;100272.19;;;5.50;100.00
55916;BME280;41826;53.246;-6.670;2022-12-28T00:58:05;100267.06;;;5.59;100.00
55916;BME280;41826;53.246;-6.670;2022-12-28T01:00:31;100254.06;;;5.48;100.00
55916;BME280;41826;53.246;-6.670;2022-12-28T01:02:57;100248.97;;;5.47;100.00
55916;BME280;41826;53.246;-6.670;2022-12-28T01:05:22;100226.88;;;5.52;100.00
55916;BME280;41826;53.246;-6.670;2022-12-28T01:07:48;100239.75;;;5.54;100.00
55916;BME280;41826;53.246;-6.670;2022-12-28T01:10:14;100229.25;;;5.33;100.00
55916;BME280;41826;53.246;-6.670;2022-12-28T01:12:40;100233.00;;;5.51;100.00
55916;BME280;41826;53.246;-6.670;2022-12-28T01:15:07;100224.78;;;5.35;100.00
55916;BME280;41826;53.246;-6.670;2022-12-28T01:17:33;100224.88;;;5.45;100.00
55916;BME280;41826;53.246;-6.670;2022-12-28T01:19:58;100221.41;;;5.44;100.00
55916;BME280;41826;53.246;-6.670;2022-12-28T01:22:25;100223.56;;;5.39;100.00
55916;BME280;41826;53.246;-6.670;2022-12-28T01:24:50;100213.19;;;5.28;100.00
55916;BME280;41826;53.246;-6.670;2022-12-28T01:27:15;100202.06;;;5.26;100.00
55916;BME280;41826;53.246;-6.670;2022-12-28T01:29:41;100190.22;;;5.21;100.00
55916;BME280;41826;53.246;-6.670;2022-12-28T01:32:06;100171.81;;;5.25;100.00
55916;BME280;41826;53.246;-6.670;2022-12-28T01:34:31;100167.44;;;5.14;100.00
55916;BME280;41826;53.246;-6.670;2022-12-28T01:36:57;100161.41;;;5.13;100.00
55916;BME280;41826;53.246;-6.670;2022-12-28T01:39:22;100167.53;;;5.24;100.00
55916;BME280;41826;53.246;-6.670;2022-12-28T01:41:48;100161.44;;;5.02;100.00
55916;BME280;41826;53.246;-6.670;2022-12-28T01:46:48;100153.78;;;5.33;100.00
55916;BME280;41826;53.246;-6.670;2022-12-28T01:49:35;100137.63;;;5.18;100.00
55916;BME280;41826;53.246;-6.670;2022-12-28T01:54:48;100129.25;;;5.14;100.00
55916;BME280;41826;53.246;-6.670;2022-12-28T01:57:17;100126.25;;;5.19;100.00
55916;BME280;41826;53.246;-6.670;2022-12-28T01:59:50;100111.03;;;5.14;100.00
55916;BME280;41826;53.246;-6.670;2022-12-28T02:02:19;100115.06;;;5.07;100.00
55916;BME280;41826;53.246;-6.670;2022-12-28T02:04:45;100105.13;;;5.01;100.00
55916;BME280;41826;53.246;-6.670;2022-12-28T02:07:17;100103.00;;;5.06;100.00
55916;BME280;41826;53.246;-6.670;2022-12-28T02:09:45;100099.16;;;5.21;100.00
55916;BME280;41826;53.246;-6.670;2022-12-28T02:12:13;100099.09;;;5.12;100.00
55916;BME280;41826;53.246;-6.670;2022-12-28T02:14:40;100068.34;;;5.17;100.00
55916;BME280;41826;53.246;-6.670;2022-12-28T02:17:10;100078.97;;;5.14;100.00
55916;BME280;41826;53.246;-6.670;2022-12-28T02:19:45;100083.09;;;5.16;100.00
55916;BME280;41826;53.246;-6.670;2022-12-28T02:30:07;100081.72;;;5.01;100.00
55916;BME280;41826;53.246;-6.670;2022-12-28T02:35:37;100063.88;;;5.08;100.00
55916;BME280;41826;53.246;-6.670;2022-12-28T02:38:19;100065.38;;;5.10;100.00
55916;BME280;41826;53.246;-6.670;2022-12-28T02:40:48;100068.19;;;5.18;100.00
55916;BME280;41826;53.246;-6.670;2022-12-28T02:43:16;100064.66;;;5.19;100.00
55916;BME280;41826;53.246;-6.670;2022-12-28T02:45:43;100053.19;;;5.11;100.00
55916;BME280;41826;53.246;-6.670;2022-12-28T02:48:38;100046.34;;;5.10;100.00
55916;BME280;41826;53.246;-6.670;2022-12-28T02:58:01;100022.50;;;5.05;100.00
55916;BME280;41826;53.246;-6.670;2022-12-28T03:00:15;100009.28;;;4.96;100.00
55916;BME280;41826;53.246;-6.670;2022-12-28T03:08:40;99980.09;;;4.93;100.00
55916;BME280;41826;53.246;-6.670;2022-12-28T03:11:14;99969.88;;;5.01;100.00
55916;BME280;41826;53.246;-6.670;2022-12-28T03:16:24;99954.66;;;5.17;100.00
55916;BME280;41826;53.246;-6.670;2022-12-28T03:18:56;99951.44;;;5.25;100.00
55916;BME280;41826;53.246;-6.670;2022-12-28T03:21:43;99938.81;;;5.20;100.00
55916;BME280;41826;53.246;-6.670;2022-12-28T03:24:28;99937.47;;;5.05;100.00
55916;BME280;41826;53.246;-6.670;2022-12-28T03:27:16;99925.22;;;4.96;100.00
55916;BME280;41826;53.246;-6.670;2022-12-28T03:30:08;99918.44;;;5.05;100.00
55916;BME280;41826;53.246;-6.670;2022-12-28T03:32:54;99907.91;;;5.06;100.00
55916;BME280;41826;53.246;-6.670;2022-12-28T03:35:22;99910.84;;;4.92;100.00
55916;BME280;41826;53.246;-6.670;2022-12-28T03:38:01;99914.44;;;5.00;100.00
55916;BME280;41826;53.246;-6.670;2022-12-28T03:43:16;99887.28;;;4.93;100.00
55916;BME280;41826;53.246;-6.670;2022-12-28T03:46:14;99868.84;;;4.96;100.00
55916;BME280;41826;53.246;-6.670;2022-12-28T03:48:42;99859.31;;;5.07;100.00
55916;BME280;41826;53.246;-6.670;2022-12-28T03:51:08;99844.53;;;5.07;100.00
55916;BME280;41826;53.246;-6.670;2022-12-28T03:53:44;99839.66;;;4.93;100.00
55916;BME280;41826;53.246;-6.670;2022-12-28T03:56:14;99828.31;;;4.94;100.00
55916;BME280;41826;53.246;-6.670;2022-12-28T03:58:40;99821.72;;;4.90;100.00
55916;BME280;41826;53.246;-6.670;2022-12-28T04:01:06;99807.72;;;4.81;100.00
55916;BME280;41826;53.246;-6.670;2022-12-28T04:03:32;99811.56;;;4.87;100.00
55916;BME280;41826;53.246;-6.670;2022-12-28T04:05:58;99805.94;;;4.82;100.00
55916;BME280;41826;53.246;-6.670;2022-12-28T04:08:23;99796.22;;;4.84;100.00
55916;BME280;41826;53.246;-6.670;2022-12-28T04:10:48;99784.31;;;4.81;100.00
55916;BME280;41826;53.246;-6.670;2022-12-28T04:13:14;99780.31;;;4.77;100.00
55916;BME280;41826;53.246;-6.670;2022-12-28T04:15:39;99763.09;;;4.86;100.00
55916;BME280;41826;53.246;-6.670;2022-12-28T04:18:05;99753.41;;;4.88;100.00
55916;BME280;41826;53.246;-6.670;2022-12-28T04:20:30;99743.78;;;4.78;100.00
55916;BME280;41826;53.246;-6.670;2022-12-28T04:22:55;99741.78;;;4.92;100.00
55916;BME280;41826;53.246;-6.670;2022-12-28T04:25:21;99726.44;;;4.89;100.00
55916;BME280;41826;53.246;-6.670;2022-12-28T04:27:46;99713.84;;;4.84;100.00
55916;BME280;41826;53.246;-6.670;2022-12-28T04:30:12;99701.38;;;4.88;100.00
55916;BME280;41826;53.246;-6.670;2022-12-28T04:32:37;99688.09;;;4.81;100.00
55916;BME280;41826;53.246;-6.670;2022-12-28T04:35:03;99682.06;;;4.81;100.00
55916;BME280;41826;53.246;-6.670;2022-12-28T04:37:28;99677.56;;;4.83;100.00
55916;BME280;41826;53.246;-6.670;2022-12-28T04:39:54;99674.97;;;4.83;100.00
55916;BME280;41826;53.246;-6.670;2022-12-28T04:42:20;99659.19;;;4.74;100.00
55916;BME280;41826;53.246;-6.670;2022-12-28T04:44:45;99644.69;;;4.72;100.00
55916;BME280;41826;53.246;-6.670;2022-12-28T04:47:10;99636.34;;;4.78;100.00
55916;BME280;41826;53.246;-6.670;2022-12-28T04:49:36;99625.13;;;4.77;100.00
55916;BME280;41826;53.246;-6.670;2022-12-28T04:52:01;99602.69;;;4.76;100.00
55916;BME280;41826;53.246;-6.670;2022-12-28T04:54:26;99593.94;;;4.77;100.00
55916;BME280;41826;53.246;-6.670;2022-12-28T04:56:52;99588.75;;;4.87;100.00
55916;BME280;41826;53.246;-6.670;2022-12-28T04:59:17;99592.16;;;4.88;100.00
55916;BME280;41826;53.246;-6.670;2022-12-28T05:01:42;99573.97;;;4.88;100.00
55916;BME280;41826;53.246;-6.670;2022-12-28T05:04:08;99575.88;;;4.86;100.00
55916;BME280;41826;53.246;-6.670;2022-12-28T05:06:33;99564.38;;;4.88;100.00
55916;BME280;41826;53.246;-6.670;2022-12-28T05:08:59;99546.59;;;4.84;100.00
55916;BME280;41826;53.246;-6.670;2022-12-28T05:11:27;99538.53;;;4.87;100.00
55916;BME280;41826;53.246;-6.670;2022-12-28T05:13:53;99531.94;;;4.83;100.00
55916;BME280;41826;53.246;-6.670;2022-12-28T05:16:21;99519.22;;;4.80;100.00
55916;BME280;41826;53.246;-6.670;2022-12-28T05:18:47;99511.84;;;4.85;100.00
55916;BME280;41826;53.246;-6.670;2022-12-28T05:21:18;99493.75;;;4.83;100.00
55916;BME280;41826;53.246;-6.670;2022-12-28T05:23:45;99483.13;;;4.86;100.00
55916;BME280;41826;53.246;-6.670;2022-12-28T05:26:13;99472.16;;;4.92;100.00
55916;BME280;41826;53.246;-6.670;2022-12-28T05:28:39;99460.66;;;4.85;100.00
55916;BME280;41826;53.246;-6.670;2022-12-28T05:31:07;99446.28;;;4.91;100.00
55916;BME280;41826;53.246;-6.670;2022-12-28T05:33:34;99444.94;;;4.87;100.00
55916;BME280;41826;53.246;-6.670;2022-12-28T05:36:10;99436.28;;;4.96;100.00
55916;BME280;41826;53.246;-6.670;2022-12-28T05:38:36;99428.91;;;4.82;100.00
55916;BME280;41826;53.246;-6.670;2022-12-28T05:43:35;99428.34;;;4.97;100.00
55916;BME280;41826;53.246;-6.670;2022-12-28T05:46:07;99414.53;;;4.97;100.00
55916;BME280;41826;53.246;-6.670;2022-12-28T05:48:35;99410.56;;;4.83;100.00
55916;BME280;41826;53.246;-6.670;2022-12-28T05:51:02;99405.34;;;4.83;100.00
55916;BME280;41826;53.246;-6.670;2022-12-28T05:53:29;99400.97;;;4.93;100.00
55916;BME280;41826;53.246;-6.670;2022-12-28T05:56:05;99405.75;;;4.88;100.00
55916;BME280;41826;53.246;-6.670;2022-12-28T05:58:32;99395.50;;;4.96;100.00
55916;BME280;41826;53.246;-6.670;2022-12-28T06:01:05;99385.25;;;4.95;100.00
55916;BME280;41826;53.246;-6.670;2022-12-28T06:03:31;99389.47;;;4.96;100.00
55916;BME280;41826;53.246;-6.670;2022-12-28T06:05:56;99378.22;;;5.05;100.00
55916;BME280;41826;53.246;-6.670;2022-12-28T06:08:22;99373.56;;;5.09;100.00
55916;BME280;41826;53.246;-6.670;2022-12-28T06:10:47;99361.81;;;5.05;100.00
55916;BME280;41826;53.246;-6.670;2022-12-28T06:13:13;99357.56;;;5.04;100.00
55916;BME280;41826;53.246;-6.670;2022-12-28T06:15:38;99355.22;;;5.10;100.00
55916;BME280;41826;53.246;-6.670;2022-12-28T06:18:03;99351.22;;;5.16;100.00
55916;BME280;41826;53.246;-6.670;2022-12-28T06:20:29;99351.50;;;5.22;100.00
55916;BME280;41826;53.246;-6.670;2022-12-28T06:22:54;99336.56;;;5.25;100.00
55916;BME280;41826;53.246;-6.670;2022-12-28T06:25:19;99323.13;;;5.29;100.00
55916;BME280;41826;53.246;-6.670;2022-12-28T06:27:45;99307.66;;;5.28;100.00
55916;BME280;41826;53.246;-6.670;2022-12-28T06:30:11;99306.84;;;5.27;100.00
55916;BME280;41826;53.246;-6.670;2022-12-28T06:32:36;99279.31;;;5.25;100.00
55916;BME280;41826;53.246;-6.670;2022-12-28T06:35:02;99256.28;;;5.30;100.00
55916;BME280;41826;53.246;-6.670;2022-12-28T06:37:27;99251.56;;;5.15;100.00
55916;BME280;41826;53.246;-6.670;2022-12-28T06:39:53;99231.44;;;4.90;100.00
55916;BME280;41826;53.246;-6.670;2022-12-28T06:42:18;99195.28;;;4.96;100.00
55916;BME280;41826;53.246;-6.670;2022-12-28T06:44:43;99192.41;;;4.90;100.00
55916;BME280;41826;53.246;-6.670;2022-12-28T06:47:09;99180.91;;;4.92;100.00
55916;BME280;41826;53.246;-6.670;2022-12-28T06:49:34;99179.91;;;4.66;100.00
55916;BME280;41826;53.246;-6.670;2022-12-28T06:51:59;99175.22;;;4.51;100.00
55916;BME280;41826;53.246;-6.670;2022-12-28T06:54:25;99158.81;;;4.51;100.00
55916;BME280;41826;53.246;-6.670;2022-12-28T06:56:50;99145.41;;;4.46;100.00
55916;BME280;41826;53.246;-6.670;2022-12-28T06:59:15;99118.75;;;4.44;100.00
55916;BME280;41826;53.246;-6.670;2022-12-28T07:01:41;99101.47;;;4.52;100.00
55916;BME280;41826;53.246;-6.670;2022-12-28T07:04:09;99103.25;;;4.52;100.00
55916;BME280;41826;53.246;-6.670;2022-12-28T07:06:42;99093.72;;;4.43;100.00
55916;BME280;41826;53.246;-6.670;2022-12-28T07:09:09;99077.31;;;4.70;100.00
55916;BME280;41826;53.246;-6.670;2022-12-28T07:11:35;99067.16;;;4.76;100.00
55916;BME280;41826;53.246;-6.670;2022-12-28T07:14:01;99060.78;;;4.89;100.00
55916;BME280;41826;53.246;-6.670;2022-12-28T07:16:27;99051.13;;;4.99;100.00
55916;BME280;41826;53.246;-6.670;2022-12-28T07:18:53;99043.53;;;5.06;100.00
55916;BME280;41826;53.246;-6.670;2022-12-28T07:21:22;99032.63;;;5.02;100.00
55916;BME280;41826;53.246;-6.670;2022-12-28T07:23:49;99018.63;;;5.21;100.00
55916;BME280;41826;53.246;-6.670;2022-12-28T07:26:17;99003.56;;;5.25;100.00
55916;BME280;41826;53.246;-6.670;2022-12-28T07:28:47;98991.88;;;5.29;100.00
55916;BME280;41826;53.246;-6.670;2022-12-28T07:31:15;98984.28;;;5.35;100.00
55916;BME280;41826;53.246;-6.670;2022-12-28T07:33:42;98969.47;;;5.36;100.00
55916;BME280;41826;53.246;-6.670;2022-12-28T07:36:10;98954.59;;;5.46;100.00
55916;BME280;41826;53.246;-6.670;2022-12-28T07:38:37;98940.13;;;5.52;100.00
55916;BME280;41826;53.246;-6.670;2022-12-28T07:41:04;98928.66;;;5.62;100.00
55916;BME280;41826;53.246;-6.670;2022-12-28T07:43:30;98918.41;;;5.69;100.00
55916;BME280;41826;53.246;-6.670;2022-12-28T07:46:04;98897.66;;;5.77;100.00
55916;BME280;41826;53.246;-6.670;2022-12-28T07:48:33;98881.63;;;5.98;100.00
55916;BME280;41826;53.246;-6.670;2022-12-28T07:51:08;98859.56;;;6.43;100.00
55916;BME280;41826;53.246;-6.670;2022-12-28T07:53:35;98840.00;;;6.64;100.00
55916;BME280;41826;53.246;-6.670;2022-12-28T07:56:01;98827.94;;;6.71;100.00
55916;BME280;41826;53.246;-6.670;2022-12-28T07:58:26;98820.06;;;6.95;100.00
55916;BME280;41826;53.246;-6.670;2022-12-28T08:00:52;98810.28;;;6.98;100.00
55916;BME280;41826;53.246;-6.670;2022-12-28T08:03:18;98805.75;;;6.91;100.00
55916;BME280;41826;53.246;-6.670;2022-12-28T08:05:43;98794.63;;;6.98;100.00
55916;BME280;41826;53.246;-6.670;2022-12-28T08:08:09;98779.66;;;6.91;100.00
55916;BME280;41826;53.246;-6.670;2022-12-28T08:10:34;98759.69;;;7.15;100.00
55916;BME280;41826;53.246;-6.670;2022-12-28T08:13:00;98750.84;;;7.24;100.00
55916;BME280;41826;53.246;-6.670;2022-12-28T08:15:26;98749.69;;;7.27;100.00
55916;BME280;41826;53.246;-6.670;2022-12-28T08:17:55;98727.41;;;7.47;100.00
55916;BME280;41826;53.246;-6.670;2022-12-28T08:20:21;98716.69;;;7.34;100.00
55916;BME280;41826;53.246;-6.670;2022-12-28T08:22:47;98703.84;;;7.55;100.00
55916;BME280;41826;53.246;-6.670;2022-12-28T08:25:13;98698.13;;;7.60;100.00
55916;BME280;41826;53.246;-6.670;2022-12-28T08:27:39;98679.81;;;7.83;100.00
55916;BME280;41826;53.246;-6.670;2022-12-28T08:30:04;98684.19;;;7.91;100.00
55916;BME280;41826;53.246;-6.670;2022-12-28T08:32:30;98669.75;;;7.80;100.00
55916;BME280;41826;53.246;-6.670;2022-12-28T08:34:55;98650.78;;;8.01;100.00
55916;BME280;41826;53.246;-6.670;2022-12-28T08:37:21;98637.34;;;8.04;100.00
55916;BME280;41826;53.246;-6.670;2022-12-28T08:39:46;98626.09;;;8.03;100.00
55916;BME280;41826;53.246;-6.670;2022-12-28T08:42:12;98620.31;;;7.93;100.00
55916;BME280;41826;53.246;-6.670;2022-12-28T08:44:37;98601.50;;;8.13;100.00
55916;BME280;41826;53.246;-6.670;2022-12-28T08:47:02;98599.44;;;8.08;100.00
55916;BME280;41826;53.246;-6.670;2022-12-28T08:49:28;98596.19;;;8.06;100.00
55916;BME280;41826;53.246;-6.670;2022-12-28T08:51:53;98597.88;;;7.99;100.00
55916;BME280;41826;53.246;-6.670;2022-12-28T08:54:19;98581.22;;;8.15;100.00
55916;BME280;41826;53.246;-6.670;2022-12-28T08:56:44;98565.16;;;8.33;100.00
55916;BME280;41826;53.246;-6.670;2022-12-28T08:59:15;98557.25;;;8.11;100.00
55916;BME280;41826;53.246;-6.670;2022-12-28T09:01:41;98544.88;;;8.20;100.00
55916;BME280;41826;53.246;-6.670;2022-12-28T09:04:11;98541.56;;;8.11;100.00
55916;BME280;41826;53.246;-6.670;2022-12-28T09:06:37;98523.00;;;8.36;100.00
55916;BME280;41826;53.246;-6.670;2022-12-28T09:09:05;98513.09;;;8.31;100.00
55916;BME280;41826;53.246;-6.670;2022-12-28T09:11:32;98502.97;;;8.43;100.00
55916;BME280;41826;53.246;-6.670;2022-12-28T09:13:58;98509.66;;;8.31;100.00
55916;BME280;41826;53.246;-6.670;2022-12-28T09:16:26;98485.56;;;8.35;100.00
55916;BME280;41826;53.246;-6.670;2022-12-28T09:18:56;98480.25;;;8.58;100.00
55916;BME280;41826;53.246;-6.670;2022-12-28T09:21:24;98458.19;;;8.46;100.00
55916;BME280;41826;53.246;-6.670;2022-12-28T09:23:50;98445.34;;;8.73;100.00
55916;BME280;41826;53.246;-6.670;2022-12-28T09:26:19;98451.78;;;8.70;100.00
55916;BME280;41826;53.246;-6.670;2022-12-28T09:28:46;98443.00;;;8.56;100.00
55916;BME280;41826;53.246;-6.670;2022-12-28T09:31:12;98428.84;;;8.72;100.00
55916;BME280;41826;53.246;-6.670;2022-12-28T09:33:38;98421.16;;;8.64;100.00
55916;BME280;41826;53.246;-6.670;2022-12-28T09:36:22;98407.50;;;8.68;100.00
55916;BME280;41826;53.246;-6.670;2022-12-28T09:38:48;98394.78;;;8.65;100.00
55916;BME280;41826;53.246;-6.670;2022-12-28T09:44:08;98383.34;;;8.66;100.00
55916;BME280;41826;53.246;-6.670;2022-12-28T09:46:52;98372.50;;;8.70;100.00
55916;BME280;41826;53.246;-6.670;2022-12-28T09:49:25;98352.91;;;8.87;100.00
55916;BME280;41826;53.246;-6.670;2022-12-28T09:54:40;98332.00;;;8.87;100.00
55916;BME280;41826;53.246;-6.670;2022-12-28T09:57:17;98326.44;;;9.03;100.00
55916;BME280;41826;53.246;-6.670;2022-12-28T09:59:45;98315.34;;;9.01;100.00
55916;BME280;41826;53.246;-6.670;2022-12-28T10:02:31;98315.91;;;8.90;100.00
55916;BME280;41826;53.246;-6.670;2022-12-28T10:04:58;98311.53;;;8.97;100.00
55916;BME280;41826;53.246;-6.670;2022-12-28T10:07:24;98317.72;;;8.89;100.00
55916;BME280;41826;53.246;-6.670;2022-12-28T10:09:49;98304.13;;;9.07;100.00
55916;BME280;41826;53.246;-6.670;2022-12-28T10:12:19;98295.91;;;9.10;100.00
55916;BME280;41826;53.246;-6.670;2022-12-28T10:14:46;98308.22;;;9.17;100.00
55916;BME280;41826;53.246;-6.670;2022-12-28T10:17:13;98302.66;;;8.98;100.00
55916;BME280;41826;53.246;-6.670;2022-12-28T10:19:39;98300.28;;;9.03;100.00
55916;BME280;41826;53.246;-6.670;2022-12-28T10:22:07;98293.72;;;9.21;100.00
55916;BME280;41826;53.246;-6.670;2022-12-28T10:24:35;98286.03;;;9.13;100.00
55916;BME280;41826;53.246;-6.670;2022-12-28T10:27:04;98285.31;;;9.25;100.00
55916;BME280;41826;53.246;-6.670;2022-12-28T10:29:31;98297.41;;;9.33;100.00
55916;BME280;41826;53.246;-6.670;2022-12-28T10:32:07;98281.94;;;9.38;100.00
55916;BME280;41826;53.246;-6.670;2022-12-28T10:34:35;98277.09;;;9.35;100.00
55916;BME280;41826;53.246;-6.670;2022-12-28T10:37:13;98258.41;;;9.45;100.00
55916;BME280;41826;53.246;-6.670;2022-12-28T10:39:39;98268.44;;;9.35;100.00
55916;BME280;41826;53.246;-6.670;2022-12-28T10:45:19;98259.41;;;9.50;100.00
55916;BME280;41826;53.246;-6.670;2022-12-28T10:47:48;98258.59;;;9.43;100.00
55916;BME280;41826;53.246;-6.670;2022-12-28T10:50:53;98252.59;;;9.56;100.00
55916;BME280;41826;53.246;-6.670;2022-12-28T10:55:44;98238.06;;;9.53;100.00
55916;BME280;41826;53.246;-6.670;2022-12-28T10:58:18;98230.44;;;9.59;100.00
55916;BME280;41826;53.246;-6.670;2022-12-28T11:00:55;98223.59;;;9.64;100.00
55916;BME280;41826;53.246;-6.670;2022-12-28T11:03:32;98215.94;;;9.63;100.00
55916;BME280;41826;53.246;-6.670;2022-12-28T11:06:17;98221.00;;;9.71;100.00
55916;BME280;41826;53.246;-6.670;2022-12-28T11:08:44;98223.19;;;9.74;100.00
55916;BME280;41826;53.246;-6.670;2022-12-28T11:11:21;98211.69;;;9.62;100.00
55916;BME280;41826;53.246;-6.670;2022-12-28T11:13:59;98209.13;;;9.75;100.00
55916;BME280;41826;53.246;-6.670;2022-12-28T11:16:35;98200.84;;;9.71;100.00
55916;BME280;41826;53.246;-6.670;2022-12-28T11:19:01;98203.47;;;9.65;100.00
55916;BME280;41826;53.246;-6.670;2022-12-28T11:21:27;98192.56;;;9.74;100.00
55916;BME280;41826;53.246;-6.670;2022-12-28T11:23:52;98192.34;;;9.69;100.00
55916;BME280;41826;53.246;-6.670;2022-12-28T11:26:19;98190.56;;;9.70;100.00
55916;BME280;41826;53.246;-6.670;2022-12-28T11:28:48;98191.78;;;9.67;100.00
55916;BME280;41826;53.246;-6.670;2022-12-28T11:31:25;98187.75;;;9.85;100.00
55916;BME280;41826;53.246;-6.670;2022-12-28T11:34:03;98168.78;;;9.89;100.00
55916;BME280;41826;53.246;-6.670;2022-12-28T11:36:36;98168.81;;;9.83;100.00
55916;BME280;41826;53.246;-6.670;2022-12-28T11:41:50;98168.41;;;9.86;100.00
55916;BME280;41826;53.246;-6.670;2022-12-28T11:49:41;98149.44;;;9.97;100.00
55916;BME280;41826;53.246;-6.670;2022-12-28T11:54:52;98149.84;;;9.94;100.00
55916;BME280;41826;53.246;-6.670;2022-12-28T11:57:38;98145.03;;;9.91;100.00
55916;BME280;41826;53.246;-6.670;2022-12-28T12:07:55;98147.63;;;9.97;100.00
55916;BME280;41826;53.246;-6.670;2022-12-28T12:10:32;98133.72;;;10.04;100.00
55916;BME280;41826;53.246;-6.670;2022-12-28T12:13:00;98132.50;;;10.06;100.00
55916;BME280;41826;53.246;-6.670;2022-12-28T12:15:46;98136.34;;;10.04;100.00
55916;BME280;41826;53.246;-6.670;2022-12-28T12:18:18;98147.03;;;9.95;100.00
55916;BME280;41826;53.246;-6.670;2022-12-28T12:21:03;98171.00;;;9.92;100.00
55916;BME280;41826;53.246;-6.670;2022-12-28T12:23:51;98213.16;;;9.91;100.00
55916;BME280;41826;53.246;-6.670;2022-12-28T12:26:31;98232.50;;;9.83;100.00
55916;BME280;41826;53.246;-6.670;2022-12-28T12:29:01;98263.75;;;9.91;100.00
55916;BME280;41826;53.246;-6.670;2022-12-28T12:31:35;98298.63;;;9.85;100.00
55916;BME280;41826;53.246;-6.670;2022-12-28T12:34:07;98327.22;;;9.87;100.00
55916;BME280;41826;53.246;-6.670;2022-12-28T12:45:04;98426.63;;;9.88;100.00
55916;BME280;41826;53.246;-6.670;2022-12-28T12:51:00;98442.94;;;9.84;100.00
55916;BME280;41826;53.246;-6.670;2022-12-28T12:55:57;98460.41;;;9.70;100.00
55916;BME280;41826;53.246;-6.670;2022-12-28T12:58:39;98466.25;;;9.72;100.00
55916;BME280;41826;53.246;-6.670;2022-12-28T13:03:48;98454.94;;;9.71;100.00
55916;BME280;41826;53.246;-6.670;2022-12-28T13:06:17;98450.78;;;9.84;100.00
55916;BME280;41826;53.246;-6.670;2022-12-28T13:08:47;98445.50;;;9.77;100.00
55916;BME280;41826;53.246;-6.670;2022-12-28T13:11:15;98442.09;;;9.76;100.00
55916;BME280;41826;53.246;-6.670;2022-12-28T13:13:43;98429.38;;;9.73;100.00
55916;BME280;41826;53.246;-6.670;2022-12-28T13:16:13;98437.28;;;9.80;100.00
55916;BME280;41826;53.246;-6.670;2022-12-28T13:18:39;98414.06;;;9.70;100.00
55916;BME280;41826;53.246;-6.670;2022-12-28T13:21:17;98409.06;;;9.82;100.00
55916;BME280;41826;53.246;-6.670;2022-12-28T13:23:44;98410.22;;;9.73;100.00
55916;BME280;41826;53.246;-6.670;2022-12-28T13:26:11;98411.59;;;9.62;100.00
55916;BME280;41826;53.246;-6.670;2022-12-28T13:28:50;98403.75;;;9.62;100.00
55916;BME280;41826;53.246;-6.670;2022-12-28T13:31:20;98389.06;;;9.68;100.00
55916;BME280;41826;53.246;-6.670;2022-12-28T13:33:58;98375.00;;;9.41;100.00
55916;BME280;41826;53.246;-6.670;2022-12-28T13:36:24;98368.75;;;9.42;100.00
55916;BME280;41826;53.246;-6.670;2022-12-28T13:39:05;98357.91;;;9.45;100.00
55916;BME280;41826;53.246;-6.670;2022-12-28T13:41:35;98342.97;;;9.39;100.00
55916;BME280;41826;53.246;-6.670;2022-12-28T13:44:14;98334.94;;;9.47;100.00
55916;BME280;41826;53.246;-6.670;2022-12-28T13:46:47;98333.50;;;9.44;100.00
55916;BME280;41826;53.246;-6.670;2022-12-28T13:49:16;98318.41;;;9.40;100.00
55916;BME280;41826;53.246;-6.670;2022-12-28T13:51:42;98314.56;;;9.36;100.00
55916;BME280;41826;53.246;-6.670;2022-12-28T13:54:09;98306.06;;;9.27;100.00
55916;BME280;41826;53.246;-6.670;2022-12-28T13:56:36;98283.53;;;9.32;100.00
55916;BME280;41826;53.246;-6.670;2022-12-28T13:59:06;98295.38;;;9.22;100.00
55916;BME280;41826;53.246;-6.670;2022-12-28T14:01:35;98291.56;;;9.31;100.00
55916;BME280;41826;53.246;-6.670;2022-12-28T14:04:06;98296.78;;;9.24;100.00
55916;BME280;41826;53.246;-6.670;2022-12-28T14:06:32;98291.91;;;9.21;100.00
55916;BME280;41826;53.246;-6.670;2022-12-28T14:08:58;98291.50;;;9.18;100.00
55916;BME280;41826;53.246;-6.670;2022-12-28T14:11:24;98288.09;;;9.24;100.00
55916;BME280;41826;53.246;-6.670;2022-12-28T14:13:50;98282.63;;;9.19;100.00
55916;BME280;41826;53.246;-6.670;2022-12-28T14:16:17;98287.06;;;9.18;100.00
55916;BME280;41826;53.246;-6.670;2022-12-28T14:18:43;98287.47;;;9.15;100.00
55916;BME280;41826;53.246;-6.670;2022-12-28T14:21:09;98291.91;;;9.15;100.00